createdAt,value
2023-05-02T00:01:31.665Z,100706.31
2023-05-02T00:03:59.042Z,100715.75
2023-05-02T00:06:26.757Z,100710.78
2023-05-02T00:08:54.100Z,100712.44
2023-05-02T00:11:21.564Z,100704.00
2023-05-02T00:13:48.904Z,100714.91
2023-05-02T00:16:16.356Z,100716.06
2023-05-02T00:18:43.821Z,100718.06
2023-05-02T00:21:12.885Z,100710.28
2023-05-02T00:23:39.991Z,100714.91
2023-05-02T00:26:10.784Z,100719.22
2023-05-02T00:28:41.671Z,100723.31
2023-05-02T00:31:09.529Z,100721.19
2023-05-02T00:33:36.865Z,100719.34
2023-05-02T00:36:04.050Z,100723.69
2023-05-02T00:38:31.621Z,100716.94
2023-05-02T00:40:58.779Z,100707.34
2023-05-02T00:43:26.185Z,100724.34
2023-05-02T00:45:53.537Z,100716.41
2023-05-02T00:48:21.888Z,100717.41
2023-05-02T00:50:49.087Z,100733.63
2023-05-02T00:53:16.514Z,100722.03
2023-05-02T00:55:43.992Z,100739.47
2023-05-02T00:58:13.871Z,100725.69
2023-05-02T01:01:08.391Z,100739.09
2023-05-02T01:03:57.399Z,100736.44
2023-05-02T01:06:42.735Z,100745.88
2023-05-02T01:09:42.655Z,100730.81
2023-05-02T01:12:16.575Z,100742.41
2023-05-02T01:14:51.204Z,100748.50
2023-05-02T01:17:19.948Z,100754.47
2023-05-02T01:19:59.984Z,100734.78
2023-05-02T01:22:30.268Z,100755.97
2023-05-02T01:25:16.905Z,100753.16
2023-05-02T01:28:08.012Z,100754.97
2023-05-02T01:30:38.725Z,100759.81
2023-05-02T01:33:09.077Z,100753.66
2023-05-02T01:35:37.909Z,100754.16
2023-05-02T01:38:06.990Z,100757.44
2023-05-02T01:40:36.752Z,100751.31
2023-05-02T01:43:07.028Z,100760.28
2023-05-02T01:45:35.997Z,100763.41
2023-05-02T01:48:05.082Z,100761.16
2023-05-02T01:50:32.633Z,100761.38
2023-05-02T01:53:01.905Z,100760.91
2023-05-02T01:55:29.351Z,100770.31
2023-05-02T01:57:57.911Z,100766.78
2023-05-02T02:00:26.457Z,100766.31
2023-05-02T02:02:57.879Z,100771.56
2023-05-02T02:05:27.033Z,100772.84
2023-05-02T02:07:54.459Z,100775.69
2023-05-02T02:10:23.381Z,100765.19
2023-05-02T02:12:56.940Z,100781.28
2023-05-02T02:15:35.825Z,100772.31
2023-05-02T02:18:12.226Z,100786.69
2023-05-02T02:20:43.836Z,100779.25
2023-05-02T02:23:13.428Z,100763.56
2023-05-02T02:25:41.168Z,100785.66
2023-05-02T02:28:09.191Z,100784.81
2023-05-02T02:30:36.641Z,100787.66
2023-05-02T02:33:04.748Z,100767.50
2023-05-02T02:35:40.256Z,100773.50
2023-05-02T02:38:28.409Z,100792.88
2023-05-02T02:41:02.737Z,100785.88
2023-05-02T02:43:58.058Z,100803.63
2023-05-02T02:46:47.117Z,100799.41
2023-05-02T02:49:14.227Z,100799.94
2023-05-02T02:52:00.006Z,100803.75
2023-05-02T02:54:50.380Z,100809.25
2023-05-02T02:57:36.002Z,100813.84
2023-05-02T03:00:18.247Z,100826.41
2023-05-02T03:02:48.068Z,100826.72
2023-05-02T03:05:16.470Z,100825.38
2023-05-02T03:07:44.107Z,100822.00
2023-05-02T03:10:12.239Z,100825.56
2023-05-02T03:12:40.509Z,100831.81
2023-05-02T03:16:00.149Z,100833.56
2023-05-02T03:18:30.189Z,100838.25
2023-05-02T03:20:58.115Z,100825.69
2023-05-02T03:23:25.547Z,100824.50
2023-05-02T03:25:54.832Z,100835.78
2023-05-02T03:28:24.595Z,100835.16
2023-05-02T03:30:53.463Z,100832.22
2023-05-02T03:33:21.832Z,100826.91
2023-05-02T03:35:49.104Z,100817.88
2023-05-02T03:38:16.220Z,100820.44
2023-05-02T03:40:46.013Z,100837.19
2023-05-02T03:43:13.825Z,100833.53
2023-05-02T03:45:41.089Z,100847.75
2023-05-02T03:48:08.690Z,100840.31
2023-05-02T03:50:37.594Z,100852.72
2023-05-02T03:53:05.704Z,100840.03
2023-05-02T03:55:45.858Z,100860.16
2023-05-02T03:58:20.206Z,100837.56
2023-05-02T04:00:47.581Z,100863.09
2023-05-02T04:03:16.666Z,100855.31
2023-05-02T04:05:45.810Z,100877.28
2023-05-02T04:08:15.320Z,100867.81
2023-05-02T04:10:43.092Z,100883.09
2023-05-02T04:13:11.952Z,100880.69
2023-05-02T04:15:42.252Z,100877.81
2023-05-02T04:18:09.823Z,100880.13
2023-05-02T04:20:38.216Z,100888.28
2023-05-02T04:23:05.592Z,100891.28
2023-05-02T04:25:33.054Z,100888.59
2023-05-02T04:28:03.514Z,100891.72
2023-05-02T04:30:31.451Z,100880.28
2023-05-02T04:33:05.366Z,100888.59
2023-05-02T04:35:36.182Z,100912.41
2023-05-02T04:38:04.911Z,100900.59
2023-05-02T04:40:33.409Z,100925.84
2023-05-02T04:43:05.112Z,100923.97
2023-05-02T04:45:52.553Z,100916.38
2023-05-02T04:48:27.178Z,100924.91
2023-05-02T04:50:54.503Z,100909.94
2023-05-02T04:53:24.602Z,100937.59
2023-05-02T04:55:52.431Z,100930.25
2023-05-02T04:58:19.965Z,100913.28
2023-05-02T05:00:51.375Z,100933.75
2023-05-02T05:03:18.645Z,100937.44
2023-05-02T05:05:46.393Z,100934.63
2023-05-02T05:08:15.532Z,100927.28
2023-05-02T05:10:45.493Z,100922.53
2023-05-02T05:13:14.058Z,100952.88
2023-05-02T05:15:44.803Z,100943.63
2023-05-02T05:18:13.004Z,100958.16
2023-05-02T05:20:40.289Z,100954.53
2023-05-02T05:23:08.032Z,100947.13
2023-05-02T05:25:35.475Z,100948.28
2023-05-02T05:28:03.894Z,100966.53
2023-05-02T05:30:33.824Z,100956.59
2023-05-02T05:33:02.703Z,100957.41
2023-05-02T05:35:30.494Z,100964.03
2023-05-02T05:37:59.305Z,100979.34
2023-05-02T05:40:27.999Z,100975.16
2023-05-02T05:42:57.928Z,100979.47
2023-05-02T05:45:29.333Z,100989.72
2023-05-02T05:47:56.618Z,100974.28
2023-05-02T05:50:26.558Z,100976.66
2023-05-02T05:52:54.064Z,100980.38
2023-05-02T05:55:22.076Z,100998.75
2023-05-02T05:57:49.325Z,100985.38
2023-05-02T06:00:16.908Z,100993.06
2023-05-02T06:02:47.655Z,100991.91
2023-05-02T06:05:28.005Z,100993.38
2023-05-02T06:07:55.239Z,101003.47
2023-05-02T06:10:22.536Z,101004.34
2023-05-02T06:12:50.465Z,101002.25
2023-05-02T06:15:20.765Z,100989.72
2023-05-02T06:17:48.046Z,101008.50
2023-05-02T06:20:18.736Z,101004.25
2023-05-02T06:22:46.308Z,100996.66
2023-05-02T06:25:13.693Z,100997.16
2023-05-02T06:27:41.247Z,101011.41
2023-05-02T06:30:09.889Z,101006.22
2023-05-02T06:32:37.162Z,101010.72
2023-05-02T06:35:04.763Z,101007.16
2023-05-02T06:37:35.860Z,101009.97
2023-05-02T06:40:03.900Z,101014.94
2023-05-02T06:42:33.047Z,101001.59
2023-05-02T06:45:00.337Z,101002.84
2023-05-02T06:47:28.384Z,100993.81
2023-05-02T06:49:56.375Z,101022.69
2023-05-02T06:52:23.702Z,101011.47
2023-05-02T06:54:50.861Z,101012.41
2023-05-02T06:57:18.228Z,101020.59
2023-05-02T06:59:45.646Z,101005.75
2023-05-02T07:02:12.877Z,101016.31
2023-05-02T07:04:40.152Z,101006.19
2023-05-02T07:07:07.646Z,101007.00
2023-05-02T07:09:35.048Z,101017.34
2023-05-02T07:12:04.576Z,101019.78
2023-05-02T07:14:33.371Z,101000.41
2023-05-02T07:17:02.763Z,100993.81
2023-05-02T07:19:30.279Z,101032.22
2023-05-02T07:21:58.302Z,101017.50
2023-05-02T07:24:25.392Z,101010.38
2023-05-02T07:26:52.680Z,101017.78
2023-05-02T07:29:19.774Z,101018.28
2023-05-02T07:31:47.244Z,101015.09
2023-05-02T07:34:14.514Z,101017.50
2023-05-02T07:36:43.016Z,101023.38
2023-05-02T07:39:10.569Z,101032.13
2023-05-02T07:41:37.918Z,101004.91
2023-05-02T07:44:05.328Z,101012.47
2023-05-02T07:46:32.742Z,101026.44
2023-05-02T07:48:59.993Z,101011.88
2023-05-02T07:51:27.267Z,101032.06
2023-05-02T07:53:56.045Z,101009.22
2023-05-02T07:56:23.193Z,101017.97
2023-05-02T07:58:51.778Z,101025.25
2023-05-02T08:01:19.332Z,101035.50
2023-05-02T08:03:47.221Z,101029.78
2023-05-02T08:06:14.749Z,101007.81
2023-05-02T08:08:42.031Z,101024.28
2023-05-02T08:11:09.296Z,101043.81
2023-05-02T08:13:36.552Z,101031.56
2023-05-02T08:16:03.900Z,101040.00
2023-05-02T08:18:31.163Z,101023.00
2023-05-02T08:21:01.180Z,101019.78
2023-05-02T08:23:28.714Z,101028.09
2023-05-02T08:25:56.377Z,101024.78
2023-05-02T08:28:23.503Z,101035.59
2023-05-02T08:30:50.620Z,101039.22
2023-05-02T08:33:17.831Z,101039.47
2023-05-02T08:35:45.134Z,101032.06
2023-05-02T08:38:12.295Z,101036.28
2023-05-02T08:40:42.636Z,101034.47
2023-05-02T08:43:12.216Z,101043.88
2023-05-02T08:45:42.147Z,101027.75
2023-05-02T08:48:15.088Z,101037.31
2023-05-02T08:50:48.561Z,101032.84
2023-05-02T08:53:16.849Z,101046.38
2023-05-02T08:55:44.243Z,101043.75
2023-05-02T08:58:13.227Z,101041.56
2023-05-02T09:00:43.184Z,101044.19
2023-05-02T09:03:36.282Z,101039.28
2023-05-02T09:06:06.602Z,101038.34
2023-05-02T09:08:35.214Z,101036.38
2023-05-02T09:11:06.750Z,101031.63
2023-05-02T09:13:38.379Z,101046.19
2023-05-02T09:16:10.334Z,101058.88
2023-05-02T09:18:46.201Z,101052.22
2023-05-02T09:21:21.251Z,101042.94
2023-05-02T09:23:50.932Z,101042.88
2023-05-02T09:26:19.159Z,101059.72
2023-05-02T09:28:51.629Z,101054.28
2023-05-02T09:31:37.483Z,101076.63
2023-05-02T09:34:10.861Z,101063.41
2023-05-02T09:36:51.463Z,101052.41
2023-05-02T09:39:30.555Z,101047.72
2023-05-02T09:41:59.218Z,101056.72
2023-05-02T09:44:36.301Z,101059.56
2023-05-02T09:47:03.719Z,101051.41
2023-05-02T09:49:45.731Z,101073.44
2023-05-02T09:52:17.666Z,101065.31
2023-05-02T09:54:46.989Z,101068.19
2023-05-02T09:57:14.473Z,101055.50
2023-05-02T09:59:42.414Z,101069.94
2023-05-02T10:02:11.724Z,101077.66
2023-05-02T10:04:40.231Z,101085.44
2023-05-02T10:07:10.925Z,101086.50
2023-05-02T10:09:44.764Z,101073.78
2023-05-02T10:12:15.425Z,101098.09
2023-05-02T10:14:53.345Z,101096.97
2023-05-02T10:17:30.555Z,101092.31
2023-05-02T10:20:05.147Z,101105.38
2023-05-02T10:22:37.133Z,101104.31
2023-05-02T10:25:05.305Z,101109.97
2023-05-02T10:27:35.129Z,101094.47
2023-05-02T10:30:04.918Z,101099.31
2023-05-02T10:32:37.046Z,101111.28
2023-05-02T10:35:06.177Z,101105.69
2023-05-02T10:37:38.741Z,101119.63
2023-05-02T10:40:11.540Z,101114.91
2023-05-02T10:42:43.223Z,101134.66
2023-05-02T10:45:29.795Z,101121.13
2023-05-02T10:48:17.593Z,101130.88
2023-05-02T10:50:47.366Z,101127.03
2023-05-02T10:53:37.014Z,101135.28
2023-05-02T10:56:21.603Z,101131.53
2023-05-02T10:58:51.003Z,101128.66
2023-05-02T11:01:30.867Z,101132.75
2023-05-02T11:04:05.505Z,101131.22
2023-05-02T11:06:35.485Z,101138.09
2023-05-02T11:09:18.676Z,101133.56
2023-05-02T11:11:47.038Z,101125.44
2023-05-02T11:14:26.449Z,101134.03
2023-05-02T11:17:05.682Z,101131.75
2023-05-02T11:19:39.049Z,101134.44
2023-05-02T11:22:21.933Z,101129.69
2023-05-02T11:24:51.000Z,101122.09
2023-05-02T11:27:30.459Z,101128.44
2023-05-02T11:30:13.746Z,101113.75
2023-05-02T11:32:44.543Z,101131.88
2023-05-02T11:35:27.788Z,101129.69
2023-05-02T11:37:56.322Z,101127.63
2023-05-02T11:40:24.962Z,101146.13
2023-05-02T11:42:52.264Z,101129.91
2023-05-02T11:45:21.343Z,101123.84
2023-05-02T11:47:51.071Z,101124.06
2023-05-02T11:50:18.816Z,101126.78
2023-05-02T11:52:46.294Z,101125.34
2023-05-02T11:55:15.473Z,101144.78
2023-05-02T11:57:43.356Z,101128.59
2023-05-02T12:00:13.825Z,101135.53
2023-05-02T12:02:46.083Z,101130.34
2023-05-02T12:05:14.821Z,101155.06
2023-05-02T12:07:45.307Z,101153.09
2023-05-02T12:10:14.167Z,101139.50
2023-05-02T12:12:44.216Z,101142.19
2023-05-02T12:15:12.931Z,101146.13
2023-05-02T12:17:47.134Z,101137.84
2023-05-02T12:20:15.952Z,101156.13
2023-05-02T12:22:43.269Z,101155.00
2023-05-02T12:25:10.618Z,101161.97
2023-05-02T12:27:38.150Z,101152.34
2023-05-02T12:30:06.200Z,101154.16
2023-05-02T12:32:35.650Z,101159.47
2023-05-02T12:35:04.357Z,101164.16
2023-05-02T12:37:34.141Z,101159.78
2023-05-02T12:40:01.864Z,101140.56
2023-05-02T12:42:34.600Z,101165.53
2023-05-02T12:45:01.904Z,101163.47
2023-05-02T12:47:46.021Z,101149.00
2023-05-02T12:50:13.137Z,101160.13
2023-05-02T12:52:59.388Z,101180.09
2023-05-02T12:55:32.439Z,101167.41
2023-05-02T12:58:04.216Z,101182.69
2023-05-02T13:00:32.993Z,101168.94
2023-05-02T13:03:00.672Z,101172.19
2023-05-02T13:05:28.068Z,101182.59
2023-05-02T13:07:56.784Z,101189.34
2023-05-02T13:10:25.365Z,101177.38
2023-05-02T13:12:53.035Z,101190.78
2023-05-02T13:15:20.966Z,101191.94
2023-05-02T13:17:50.492Z,101195.78
2023-05-02T13:20:18.203Z,101202.38
2023-05-02T13:22:45.375Z,101178.97
2023-05-02T13:25:12.582Z,101178.00
2023-05-02T13:27:41.302Z,101198.09
2023-05-02T13:30:10.297Z,101197.56
2023-05-02T13:32:38.038Z,101177.84
2023-05-02T13:35:06.130Z,101197.16
2023-05-02T13:37:33.220Z,101203.72
2023-05-02T13:40:00.860Z,101201.00
2023-05-02T13:42:28.319Z,101198.63
2023-05-02T13:44:55.668Z,101210.34
2023-05-02T13:47:23.475Z,101201.50
2023-05-02T13:49:50.844Z,101210.44
2023-05-02T13:52:18.474Z,101225.63
2023-05-02T13:54:45.823Z,101209.00
2023-05-02T13:57:12.940Z,101221.69
2023-05-02T13:59:40.271Z,101225.09
2023-05-02T14:02:08.165Z,101227.91
2023-05-02T14:04:35.663Z,101226.75
2023-05-02T14:07:02.805Z,101240.81
2023-05-02T14:09:29.926Z,101209.59
2023-05-02T14:11:58.829Z,101232.66
2023-05-02T14:14:26.215Z,101221.94
2023-05-02T14:16:53.449Z,101231.00
2023-05-02T14:19:20.906Z,101232.22
2023-05-02T14:21:48.299Z,101238.88
2023-05-02T14:24:16.690Z,101247.38
2023-05-02T14:26:43.833Z,101240.03
2023-05-02T14:29:11.467Z,101250.56
2023-05-02T14:31:38.708Z,101242.94
2023-05-02T14:34:08.715Z,101266.13
2023-05-02T14:36:36.306Z,101251.03
2023-05-02T14:39:03.716Z,101256.94
2023-05-02T14:41:31.084Z,101255.34
2023-05-02T14:43:58.188Z,101255.88
2023-05-02T14:46:25.539Z,101249.56
2023-05-02T14:48:52.664Z,101250.06
2023-05-02T14:51:20.099Z,101246.75
2023-05-02T14:53:49.435Z,101244.53
2023-05-02T14:56:18.709Z,101262.03
2023-05-02T14:58:46.427Z,101258.09
2023-05-02T15:01:20.865Z,101260.81
2023-05-02T15:04:05.951Z,101240.19
2023-05-02T15:06:35.221Z,101252.72
2023-05-02T15:09:03.114Z,101263.25
2023-05-02T15:11:31.510Z,101266.56
2023-05-02T15:13:59.793Z,101264.59
2023-05-02T15:16:27.651Z,101258.91
2023-05-02T15:18:55.389Z,101260.44
2023-05-02T15:21:22.910Z,101261.81
2023-05-02T15:23:50.305Z,101262.41
2023-05-02T15:26:26.791Z,101254.31
2023-05-02T15:28:57.527Z,101249.66
2023-05-02T15:31:25.453Z,101242.03
2023-05-02T15:33:52.708Z,101254.00
2023-05-02T15:36:22.604Z,101251.28
2023-05-02T15:38:49.791Z,101256.59
2023-05-02T15:41:20.131Z,101264.91
2023-05-02T15:43:47.606Z,101263.16
2023-05-02T15:46:16.914Z,101265.38
2023-05-02T15:48:44.082Z,101265.06
2023-05-02T15:51:16.063Z,101266.44
2023-05-02T15:53:49.287Z,101282.06
2023-05-02T15:56:17.739Z,101276.44
2023-05-02T15:58:45.514Z,101294.84
2023-05-02T16:01:12.703Z,101298.72
2023-05-02T16:03:39.970Z,101300.38
2023-05-02T16:06:07.785Z,101302.66
2023-05-02T16:08:36.002Z,101295.91
2023-05-02T16:11:03.650Z,101293.94
2023-05-02T16:13:30.935Z,101305.69
2023-05-02T16:15:58.799Z,101307.06
2023-05-02T16:18:28.577Z,101298.63
2023-05-02T16:20:57.435Z,101287.47
2023-05-02T16:23:26.005Z,101313.84
2023-05-02T16:26:01.835Z,101318.53
2023-05-02T16:28:29.196Z,101297.63
2023-05-02T16:30:56.669Z,101307.31
2023-05-02T16:33:24.129Z,101315.66
2023-05-02T16:36:01.920Z,101316.72
2023-05-02T16:38:29.450Z,101332.13
2023-05-02T16:40:57.756Z,101310.66
2023-05-02T16:43:29.139Z,101323.56
2023-05-02T16:46:03.677Z,101332.97
2023-05-02T16:48:31.055Z,101346.13
2023-05-02T16:50:58.599Z,101334.09
2023-05-02T16:53:26.922Z,101332.50
2023-05-02T16:55:54.827Z,101338.19
2023-05-02T16:58:21.991Z,101339.09
2023-05-02T17:00:49.448Z,101338.28
2023-05-02T17:03:17.055Z,101350.34
2023-05-02T17:05:44.202Z,101341.59
2023-05-02T17:08:14.236Z,101338.94
2023-05-02T17:10:41.557Z,101327.19
2023-05-02T17:13:08.811Z,101326.66
2023-05-02T17:15:39.198Z,101339.25
2023-05-02T17:18:09.483Z,101347.06
2023-05-02T17:20:36.906Z,101341.84
2023-05-02T17:23:09.180Z,101336.53
2023-05-02T17:25:39.776Z,101326.66
2023-05-02T17:28:06.984Z,101330.00
2023-05-02T17:30:37.472Z,101362.59
2023-05-02T17:33:04.853Z,101366.94
2023-05-02T17:35:32.274Z,101348.28
2023-05-02T17:38:00.306Z,101362.66
2023-05-02T17:40:29.993Z,101359.88
2023-05-02T17:42:58.996Z,101356.56
2023-05-02T17:45:28.901Z,101371.00
2023-05-02T17:47:56.157Z,101354.59
2023-05-02T17:50:23.645Z,101374.34
2023-05-02T17:52:51.029Z,101379.75
2023-05-02T17:55:19.146Z,101373.41
2023-05-02T17:57:47.652Z,101380.34
2023-05-02T18:00:15.152Z,101389.09
2023-05-02T18:02:42.438Z,101386.91
2023-05-02T18:05:10.055Z,101385.31
2023-05-02T18:07:38.479Z,101379.16
2023-05-02T18:10:06.929Z,101376.97
2023-05-02T18:12:34.855Z,101390.09
2023-05-02T18:15:05.404Z,101379.84
2023-05-02T18:17:34.253Z,101391.22
2023-05-02T18:20:04.723Z,101392.66
2023-05-02T18:22:33.936Z,101390.47
2023-05-02T18:25:01.621Z,101386.09
2023-05-02T18:27:31.227Z,101386.59
2023-05-02T18:29:58.378Z,101392.91
2023-05-02T18:32:28.807Z,101402.94
2023-05-02T18:34:57.618Z,101398.16
2023-05-02T18:37:31.577Z,101399.19
2023-05-02T18:40:05.631Z,101382.88
2023-05-02T18:42:33.262Z,101389.19
2023-05-02T18:45:02.299Z,101366.03
2023-05-02T18:47:33.826Z,101375.59
2023-05-02T18:50:01.289Z,101390.41
2023-05-02T18:52:33.290Z,101377.34
2023-05-02T18:55:03.398Z,101392.91
2023-05-02T18:57:33.931Z,101386.00
2023-05-02T19:00:06.409Z,101377.63
2023-05-02T19:02:34.314Z,101378.56
2023-05-02T19:05:01.902Z,101367.34
2023-05-02T19:07:30.314Z,101376.81
2023-05-02T19:09:57.649Z,101386.16
2023-05-02T19:12:24.948Z,101385.75
2023-05-02T19:14:52.292Z,101387.44
2023-05-02T19:17:19.587Z,101396.69
2023-05-02T19:19:48.184Z,101370.22
2023-05-02T19:22:16.190Z,101382.13
2023-05-02T19:24:43.618Z,101376.81
2023-05-02T19:27:10.829Z,101377.44
2023-05-02T19:29:38.057Z,101389.03
2023-05-02T19:32:05.442Z,101383.50
2023-05-02T19:34:33.081Z,101385.22
2023-05-02T19:37:00.223Z,101386.06
2023-05-02T19:39:28.526Z,101370.75
2023-05-02T19:41:55.731Z,101391.31
2023-05-02T19:44:22.960Z,101391.59
2023-05-02T19:46:50.316Z,101388.50
2023-05-02T19:49:17.394Z,101387.06
2023-05-02T19:51:44.558Z,101401.25
2023-05-02T19:54:11.996Z,101382.88
2023-05-02T19:56:39.116Z,101388.66
2023-05-02T19:59:06.752Z,101378.94
2023-05-02T20:01:34.148Z,101399.59
2023-05-02T20:04:01.385Z,101396.84
2023-05-02T20:06:29.106Z,101394.34
2023-05-02T20:08:56.289Z,101391.00
2023-05-02T20:11:23.774Z,101410.03
2023-05-02T20:13:50.866Z,101399.25
2023-05-02T20:16:18.231Z,101404.88
2023-05-02T20:18:45.392Z,101402.16
2023-05-02T20:21:12.657Z,101406.34
2023-05-02T20:23:43.411Z,101399.41
2023-05-02T20:26:14.185Z,101405.25
2023-05-02T20:28:41.432Z,101373.56
2023-05-02T20:31:08.612Z,101399.72
2023-05-02T20:33:44.732Z,101409.50
2023-05-02T20:36:15.201Z,101406.81
2023-05-02T20:38:43.062Z,101415.31
2023-05-02T20:41:14.790Z,101424.59
2023-05-02T20:43:45.115Z,101429.97
2023-05-02T20:46:14.283Z,101427.75
2023-05-02T20:48:42.060Z,101424.69
2023-05-02T20:51:09.172Z,101417.97
2023-05-02T20:53:37.635Z,101414.56
2023-05-02T20:56:05.609Z,101426.63
2023-05-02T20:58:33.676Z,101422.72
2023-05-02T21:01:01.036Z,101411.06
2023-05-02T21:03:28.623Z,101408.84
2023-05-02T21:05:59.196Z,101428.63
2023-05-02T21:08:26.345Z,101422.78
2023-05-02T21:10:53.821Z,101427.59
2023-05-02T21:13:22.052Z,101419.78
2023-05-02T21:15:49.607Z,101437.44
2023-05-02T21:18:17.019Z,101436.09
2023-05-02T21:20:44.412Z,101421.59
2023-05-02T21:23:11.828Z,101434.19
2023-05-02T21:25:39.286Z,101431.50
2023-05-02T21:28:06.636Z,101424.38
2023-05-02T21:30:33.852Z,101430.06
2023-05-02T21:33:01.001Z,101425.63
2023-05-02T21:35:28.877Z,101437.91
2023-05-02T21:37:56.012Z,101424.00
2023-05-02T21:40:23.244Z,101445.44
2023-05-02T21:42:50.322Z,101447.44
2023-05-02T21:45:17.502Z,101417.38
2023-05-02T21:47:44.761Z,101432.69
2023-05-02T21:50:11.958Z,101451.97
2023-05-02T21:52:39.341Z,101439.72
2023-05-02T21:55:07.019Z,101449.47
2023-05-02T21:57:37.175Z,101432.44
2023-05-02T22:00:06.238Z,101453.69
2023-05-02T22:02:33.561Z,101452.03
2023-05-02T22:05:01.059Z,101447.06
2023-05-02T22:07:28.591Z,101452.88
2023-05-02T22:09:56.053Z,101458.78
2023-05-02T22:12:25.961Z,101439.81
2023-05-02T22:14:53.146Z,101442.06
2023-05-02T22:17:22.873Z,101445.16
2023-05-02T22:19:50.889Z,101447.47
2023-05-02T22:22:18.190Z,101456.97
2023-05-02T22:24:45.358Z,101445.84
2023-05-02T22:27:12.488Z,101440.31
2023-05-02T22:29:39.769Z,101442.00
2023-05-02T22:32:06.971Z,101464.94
2023-05-02T22:34:34.139Z,101444.53
2023-05-02T22:37:01.656Z,101441.47
2023-05-02T22:39:29.264Z,101449.00
2023-05-02T22:41:57.337Z,101457.38
2023-05-02T22:44:24.661Z,101468.84
2023-05-02T22:46:51.991Z,101462.19
2023-05-02T22:49:19.943Z,101461.97
2023-05-02T22:51:48.162Z,101469.53
2023-05-02T22:54:16.933Z,101446.41
2023-05-02T22:56:44.443Z,101477.66
2023-05-02T22:59:11.752Z,101466.25
2023-05-02T23:01:38.965Z,101465.97
2023-05-02T23:04:06.288Z,101472.69
2023-05-02T23:06:33.538Z,101469.91
2023-05-02T23:09:00.779Z,101452.13
2023-05-02T23:11:28.422Z,101459.69
2023-05-02T23:13:56.045Z,101469.69
2023-05-02T23:16:24.113Z,101465.81
2023-05-02T23:18:51.357Z,101457.72
2023-05-02T23:21:18.542Z,101470.53
2023-05-02T23:23:45.660Z,101477.81
2023-05-02T23:26:12.913Z,101470.88
2023-05-02T23:28:40.497Z,101481.72
2023-05-02T23:31:08.084Z,101477.84
2023-05-02T23:33:36.416Z,101490.38
2023-05-02T23:36:04.189Z,101480.59
2023-05-02T23:38:31.623Z,101489.53
2023-05-02T23:40:59.060Z,101492.31
2023-05-02T23:43:26.543Z,101494.56
2023-05-02T23:45:53.854Z,101480.38
2023-05-02T23:48:21.145Z,101489.88
2023-05-02T23:50:48.327Z,101488.47
2023-05-02T23:53:16.076Z,101492.91
2023-05-02T23:55:43.265Z,101479.53
2023-05-02T23:58:10.495Z,101476.22
